Time;durP1;ratioP1;P1;durP2;ratioP2;P2;SDS_P1;SDS_P2;PMS_P1;PMS_P2;Temp;Humidity;BMP_temperature;BMP_pressure;BME280_temperature;BME280_humidity;BME280_pressure;Samples;Min_cycle;Max_cycle;Signal;HPM_P1;HPM_P2
2024/02/28 00:01:50;;;;;;;47.00;27.50;;;;;;;13.38;69.58;98941.73;232056;204;153050;-48
2024/02/28 00:06:54;;;;;;;44.40;26.80;;;;;;;13.35;69.13;98938.77;232175;204;141327;-51
2024/02/28 00:11:57;;;;;;;42.60;27.30;;;;;;;13.30;69.27;98944.13;232243;201;138914;-52
2024/02/28 00:17:00;;;;;;;44.60;26.70;;;;;;;13.21;69.40;98939.36;232121;204;153098;-54
2024/02/28 00:22:03;;;;;;;47.00;27.40;;;;;;;13.16;69.76;98934.79;232137;201;137474;-53
2024/02/28 00:27:07;;;;;;;45.00;25.90;;;;;;;13.10;69.86;98938.27;232176;200;138913;-54
2024/02/28 00:32:10;;;;;;;42.50;25.00;;;;;;;13.04;70.18;98937.63;232082;201;153194;-51
2024/02/28 00:37:13;;;;;;;50.20;24.10;;;;;;;12.96;70.07;98941.74;232234;197;138280;-52
2024/02/28 00:42:16;;;;;;;48.70;24.70;;;;;;;12.92;70.32;98947.59;232206;201;139118;-53
2024/02/28 00:47:20;;;;;;;42.90;24.80;;;;;;;12.91;70.13;98949.98;232229;204;153099;-53
2024/02/28 00:52:25;;;;;;;41.70;24.40;;;;;;;12.95;70.42;98951.10;232202;198;142098;-49
2024/02/28 00:57:28;;;;;;;44.50;25.50;;;;;;;12.95;70.21;98941.32;232093;201;137951;-50
2024/02/28 01:02:32;;;;;;;49.60;26.70;;;;;;;12.91;70.31;98936.95;231815;198;153847;-51
2024/02/28 01:07:35;;;;;;;48.10;25.70;;;;;;;12.89;70.48;98939.23;231958;201;137563;-53
2024/02/28 01:12:39;;;;;;;41.80;27.20;;;;;;;12.86;70.50;98949.09;232033;201;139475;-53
2024/02/28 01:17:42;;;;;;;45.80;27.70;;;;;;;12.85;70.35;98945.08;232307;196;153221;-54
2024/02/28 01:22:45;;;;;;;44.50;26.80;;;;;;;12.82;70.18;98943.11;232157;204;138466;-54
2024/02/28 01:27:48;;;;;;;47.20;26.10;;;;;;;12.77;70.04;98947.06;231983;198;137473;-53
2024/02/28 01:32:51;;;;;;;44.40;25.90;;;;;;;12.74;69.94;98948.36;232035;201;153270;-52
2024/02/28 01:37:55;;;;;;;48.80;29.10;;;;;;;12.74;69.72;98952.46;232015;198;138603;-51
2024/02/28 01:43:11;;;;;;;47.70;29.60;;;;;;;12.79;69.19;98949.27;232185;196;139158;-52
2024/02/28 01:48:14;;;;;;;46.80;27.80;;;;;;;12.79;69.11;98951.52;232206;201;153873;-52
2024/02/28 01:53:17;;;;;;;47.60;28.10;;;;;;;12.76;69.30;98948.41;232307;201;138184;-54
2024/02/28 01:58:23;;;;;;;49.50;30.70;;;;;;;12.71;69.32;98948.59;232134;201;139000;-53
2024/02/28 02:03:26;;;;;;;48.00;29.00;;;;;;;12.65;69.66;98949.91;232082;201;154667;-54
2024/02/28 02:08:30;;;;;;;50.10;29.70;;;;;;;12.63;69.70;98952.73;232186;204;137758;-51
2024/02/28 02:13:35;;;;;;;50.10;30.70;;;;;;;12.58;69.44;98947.23;232276;204;138757;-54
2024/02/28 02:18:38;;;;;;;55.40;31.80;;;;;;;12.49;69.29;98936.96;232280;204;154310;-51
2024/02/28 02:23:41;;;;;;;57.80;30.70;;;;;;;12.42;69.34;98939.22;232330;201;137919;-51
2024/02/28 02:28:45;;;;;;;48.40;29.10;;;;;;;12.42;69.44;98936.80;232194;198;139569;-51
2024/02/28 02:33:48;;;;;;;51.40;30.80;;;;;;;12.44;69.47;98933.42;232195;197;153321;-53
2024/02/28 02:38:52;;;;;;;51.60;31.30;;;;;;;12.44;69.43;98930.39;232080;200;138906;-52
2024/02/28 02:43:55;;;;;;;48.00;28.70;;;;;;;12.44;69.59;98929.16;232176;204;138164;-53
2024/02/28 02:48:58;;;;;;;53.90;30.20;;;;;;;12.43;69.64;98933.54;232295;201;153117;-52
2024/02/28 02:54:02;;;;;;;48.40;30.50;;;;;;;12.39;69.80;98944.98;232356;201;137649;-50
2024/02/28 02:59:05;;;;;;;47.10;29.50;;;;;;;12.37;69.92;98949.94;232068;204;138167;-52
2024/02/28 03:04:08;;;;;;;48.50;28.90;;;;;;;12.34;69.82;98950.50;232157;201;154087;-53
2024/02/28 03:09:11;;;;;;;48.90;28.40;;;;;;;12.36;69.78;98952.16;231973;205;138661;-54
2024/02/28 03:14:15;;;;;;;46.30;28.80;;;;;;;12.39;69.82;98952.09;232020;197;139173;-54
2024/02/28 03:19:18;;;;;;;41.30;27.20;;;;;;;12.36;70.40;98949.85;232134;198;153360;-52
2024/02/28 03:24:21;;;;;;;45.60;26.80;;;;;;;12.32;70.65;98950.09;232256;204;138353;-52
2024/02/28 03:29:24;;;;;;;45.60;27.10;;;;;;;12.36;70.85;98951.23;232291;198;138569;-54
2024/02/28 03:34:27;;;;;;;41.00;26.90;;;;;;;12.40;70.84;98956.16;232193;201;153442;-54
2024/02/28 03:39:30;;;;;;;45.60;28.00;;;;;;;12.43;70.87;98958.44;232172;204;138555;-53
2024/02/28 03:44:34;;;;;;;45.20;26.90;;;;;;;12.43;70.87;98956.95;232244;204;138721;-54
2024/02/28 03:49:37;;;;;;;48.10;29.60;;;;;;;12.41;70.98;98961.72;231821;201;153310;-53
2024/02/28 03:54:43;;;;;;;45.80;28.40;;;;;;;12.35;70.85;98965.76;232213;196;138339;-52
2024/02/28 03:59:47;;;;;;;44.00;26.60;;;;;;;12.27;71.01;98962.52;232459;204;137960;-53
2024/02/28 04:04:50;;;;;;;45.60;27.60;;;;;;;12.21;71.32;98962.11;232336;204;153047;-52
2024/02/28 04:09:53;;;;;;;44.60;25.60;;;;;;;12.15;71.45;98969.61;232082;198;139524;-52
2024/02/28 04:14:56;;;;;;;38.40;24.50;;;;;;;12.16;71.56;98974.69;231838;197;138900;-52
2024/02/28 04:20:04;;;;;;;41.60;25.50;;;;;;;12.22;71.46;98978.70;232192;198;153853;-50
2024/02/28 04:25:09;;;;;;;39.80;25.20;;;;;;;12.25;71.44;98983.13;232190;201;137989;-52
2024/02/28 04:30:12;;;;;;;42.10;26.30;;;;;;;12.33;71.17;98991.85;232190;204;137867;-51
2024/02/28 04:35:18;;;;;;;36.80;25.20;;;;;;;12.39;71.05;98995.52;232245;198;154438;-53
2024/02/28 04:40:21;;;;;;;48.20;26.90;;;;;;;12.33;71.07;99002.69;232193;197;141107;-52
2024/02/28 04:45:25;;;;;;;42.70;25.60;;;;;;;12.39;71.18;99001.23;232222;200;139026;-53
2024/02/28 04:50:28;;;;;;;42.00;25.30;;;;;;;12.42;71.24;99000.08;232114;204;155023;-50
2024/02/28 04:55:31;;;;;;;39.60;24.60;;;;;;;12.44;71.49;98995.52;231629;201;139399;-50
2024/02/28 05:00:34;;;;;;;39.00;24.20;;;;;;;12.44;71.63;98998.91;231868;204;138994;-51
2024/02/28 05:05:38;;;;;;;41.10;25.10;;;;;;;12.48;71.66;99003.61;232270;204;153217;-53
2024/02/28 05:10:41;;;;;;;37.10;24.90;;;;;;;12.50;71.66;99001.15;232063;204;138329;-52
2024/02/28 05:15:44;;;;;;;32.80;22.70;;;;;;;12.50;71.48;98997.56;232051;198;138300;-54
2024/02/28 05:20:48;;;;;;;38.30;24.10;;;;;;;12.49;71.43;98998.92;232169;201;154086;-53
2024/02/28 05:25:51;;;;;;;39.10;25.90;;;;;;;12.43;71.48;99002.19;232190;197;139712;-54
2024/02/28 05:30:54;;;;;;;39.80;24.30;;;;;;;12.39;71.47;98999.59;232282;201;137925;-55
2024/02/28 05:35:57;;;;;;;483.30;383.60;;;;;;;12.37;71.96;98997.65;232330;204;153251;-52
2024/02/28 05:41:01;;;;;;;107.40;73.70;;;;;;;12.44;72.17;98997.10;232327;196;139209;-54
2024/02/28 05:46:04;;;;;;;117.00;85.10;;;;;;;12.56;73.13;98993.44;232253;197;139138;-52
2024/02/28 05:51:07;;;;;;;45.30;27.40;;;;;;;12.63;71.90;98994.92;232128;198;153149;-53
2024/02/28 05:56:14;;;;;;;34.70;21.40;;;;;;;12.69;71.68;99001.75;232195;204;138586;-55
2024/02/28 06:01:18;;;;;;;317.10;265.80;;;;;;;12.74;71.30;99011.77;232214;201;137760;-52
2024/02/28 06:06:22;;;;;;;37.90;26.30;;;;;;;12.79;71.13;99026.34;232264;201;153206;-55
2024/02/28 06:11:25;;;;;;;36.00;22.60;;;;;;;12.86;70.51;99040.45;232328;201;137576;-54
2024/02/28 06:16:29;;;;;;;38.90;24.40;;;;;;;12.91;70.04;99043.77;232268;204;138649;-55
2024/02/28 06:21:32;;;;;;;39.60;23.70;;;;;;;12.96;69.79;99042.91;231677;204;154706;-55
2024/02/28 06:26:35;;;;;;;241.10;195.60;;;;;;;12.96;69.76;99044.99;232209;197;138009;-54
2024/02/28 06:31:38;;;;;;;42.80;26.50;;;;;;;13.00;69.79;99050.59;232305;198;138723;-55
2024/02/28 06:36:41;;;;;;;43.60;26.10;;;;;;;12.99;69.45;99056.19;232284;204;153287;-53
2024/02/28 06:41:45;;;;;;;47.00;26.20;;;;;;;13.02;69.18;99063.51;232255;204;138706;-55
2024/02/28 06:46:48;;;;;;;49.50;27.80;;;;;;;13.08;69.14;99062.38;232272;198;138476;-56
2024/02/28 06:51:53;;;;;;;42.60;25.60;;;;;;;13.15;69.23;99058.66;232109;201;153032;-57
2024/02/28 06:56:57;;;;;;;42.00;27.10;;;;;;;13.21;69.42;99059.27;232176;204;138536;-51
2024/02/28 07:02:00;;;;;;;42.80;26.90;;;;;;;13.28;69.64;99066.12;232012;198;141167;-52
2024/02/28 07:07:03;;;;;;;289.40;216.20;;;;;;;13.36;70.18;99073.37;232274;201;153830;-51
2024/02/28 07:12:07;;;;;;;50.20;30.80;;;;;;;13.50;69.73;99077.16;232167;196;138964;-53
2024/02/28 07:17:10;;;;;;;48.30;27.30;;;;;;;13.60;68.74;99075.74;232302;204;137882;-52
2024/02/28 07:22:13;;;;;;;45.40;29.10;;;;;;;13.63;68.81;99080.28;232241;201;154903;-51
2024/02/28 07:27:17;;;;;;;81.60;59.20;;;;;;;13.68;68.28;99079.19;231969;201;138398;-53
2024/02/28 07:32:20;;;;;;;55.10;35.30;;;;;;;13.79;67.75;99077.17;232290;196;138586;-49
2024/02/28 07:37:23;;;;;;;52.10;33.20;;;;;;;13.89;67.23;99076.59;232276;201;154317;-52
2024/02/28 07:42:26;;;;;;;55.70;31.10;;;;;;;14.00;67.51;99078.77;232266;204;139847;-56
2024/02/28 07:47:30;;;;;;;57.90;32.60;;;;;;;14.08;67.54;99078.88;232383;201;138982;-56
2024/02/28 07:52:35;;;;;;;61.50;33.30;;;;;;;14.13;67.31;99082.38;232083;204;153495;-54
2024/02/28 07:57:38;;;;;;;62.10;32.80;;;;;;;14.22;66.97;99087.82;232157;204;137858;-54
2024/02/28 08:02:41;;;;;;;64.10;33.50;;;;;;;14.22;66.13;99087.14;232071;201;138209;-56
2024/02/28 08:07:44;;;;;;;56.40;33.00;;;;;;;14.21;66.16;99084.13;231366;204;153808;-55
2024/02/28 08:12:47;;;;;;;66.70;32.70;;;;;;;14.23;66.40;99082.42;232185;201;138446;-56
2024/02/28 08:17:50;;;;;;;60.10;32.10;;;;;;;14.24;66.65;99076.47;232413;204;138299;-56
2024/02/28 08:22:57;;;;;;;62.60;31.20;;;;;;;14.22;66.79;99079.60;232163;196;154357;-56
2024/02/28 08:28:00;;;;;;;62.30;30.10;;;;;;;14.20;67.19;99086.73;232091;204;137492;-56
2024/02/28 08:33:05;;;;;;;61.60;28.30;;;;;;;14.20;67.49;99088.65;232266;198;138429;-54
2024/02/28 08:38:09;;;;;;;56.30;27.90;;;;;;;14.24;67.61;99083.21;232187;204;153473;-56
2024/02/28 08:43:12;;;;;;;60.00;29.20;;;;;;;14.31;67.24;99086.61;232176;204;138561;-56
2024/02/28 08:48:15;;;;;;;47.40;28.40;;;;;;;14.39;67.01;99090.98;232325;201;137828;-53
2024/02/28 08:53:19;;;;;;;60.90;32.80;;;;;;;14.44;67.02;99088.96;232129;198;154215;-54
2024/02/28 08:58:22;;;;;;;67.80;33.60;;;;;;;14.50;66.44;99094.77;232208;204;138510;-54
2024/02/28 09:03:25;;;;;;;61.00;32.00;;;;;;;14.45;66.21;99096.74;231663;204;138782;-56
2024/02/28 09:08:29;;;;;;;68.90;36.00;;;;;;;14.40;66.05;99101.77;232149;204;153367;-54
2024/02/28 09:13:32;;;;;;;65.70;32.90;;;;;;;14.35;65.93;99105.02;232134;204;139032;-53
2024/02/28 09:18:35;;;;;;;83.90;32.30;;;;;;;14.34;65.97;99110.26;232128;198;139028;-53
2024/02/28 09:23:38;;;;;;;76.00;34.20;;;;;;;14.35;66.04;99111.81;232321;197;153133;-54
2024/02/28 09:28:42;;;;;;;71.30;34.00;;;;;;;14.36;66.17;99108.29;232180;204;137763;-54
2024/02/28 09:33:46;;;;;;;76.80;34.80;;;;;;;14.44;66.43;99110.04;232185;201;138820;-52
2024/02/28 09:38:49;;;;;;;70.70;34.10;;;;;;;14.49;66.28;99108.75;232063;197;153744;-52
2024/02/28 09:43:53;;;;;;;54.10;28.80;;;;;;;14.53;66.45;99109.06;232163;201;137814;-54
2024/02/28 09:48:57;;;;;;;49.20;30.20;;;;;;;14.57;66.27;99110.54;232231;204;139638;-53
2024/02/28 09:54:04;;;;;;;55.80;31.10;;;;;;;14.66;65.77;99109.99;232373;204;153855;-54
2024/02/28 09:59:09;;;;;;;53.20;30.80;;;;;;;14.80;65.21;99116.95;232186;204;142119;-53
2024/02/28 10:04:13;;;;;;;58.00;31.20;;;;;;;14.87;64.67;99120.98;232099;196;138122;-55
2024/02/28 10:09:17;;;;;;;109.60;62.80;;;;;;;14.97;64.74;99123.14;231950;204;154039;-55
2024/02/28 10:14:20;;;;;;;69.50;31.70;;;;;;;15.05;64.63;99120.34;232019;198;137855;-54
2024/02/28 10:19:23;;;;;;;67.20;32.40;;;;;;;15.07;64.34;99117.88;232079;201;137650;-55
2024/02/28 10:24:27;;;;;;;68.60;33.20;;;;;;;15.09;64.12;99120.66;232191;204;153315;-55
2024/02/28 10:29:33;;;;;;;57.60;29.70;;;;;;;15.12;64.05;99117.77;232248;198;138856;-55
2024/02/28 10:34:37;;;;;;;63.10;31.10;;;;;;;15.18;64.29;99123.43;232129;204;138884;-54
2024/02/28 10:39:42;;;;;;;60.10;31.40;;;;;;;15.20;63.80;99123.41;232033;201;154103;-55
2024/02/28 10:44:51;;;;;;;63.70;30.20;;;;;;;15.20;63.76;99123.20;231936;204;138775;-53
2024/02/28 10:50:03;;;;;;;63.30;30.20;;;;;;;15.28;64.13;99126.20;232166;204;138043;-54
2024/02/28 10:55:08;;;;;;;72.60;30.70;;;;;;;15.35;64.33;99121.67;232011;200;153738;-55
2024/02/28 11:00:16;;;;;;;64.20;29.80;;;;;;;15.42;64.40;99118.99;232001;198;138206;-53
2024/02/28 11:05:19;;;;;;;55.80;30.50;;;;;;;15.46;63.97;99121.20;232099;201;138942;-54
2024/02/28 11:10:23;;;;;;;60.00;30.00;;;;;;;15.50;63.72;99121.52;231979;198;153662;-55
2024/02/28 11:15:27;;;;;;;57.90;30.10;;;;;;;15.57;63.96;99128.44;231861;197;138038;-54
2024/02/28 11:20:34;;;;;;;51.00;27.90;;;;;;;15.63;63.90;99129.23;232157;204;141981;-55
2024/02/28 11:25:37;;;;;;;53.90;27.80;;;;;;;15.70;63.40;99128.54;232126;204;153093;-54
2024/02/28 11:30:41;;;;;;;51.20;25.10;;;;;;;15.77;62.55;99134.19;232121;204;141237;-53
2024/02/28 11:35:44;;;;;;;41.50;23.80;;;;;;;15.85;61.61;99128.89;232355;204;138391;-55
2024/02/28 11:40:49;;;;;;;53.70;26.40;;;;;;;15.91;61.48;99131.08;232040;204;156420;-54
2024/02/28 11:45:55;;;;;;;70.80;28.20;;;;;;;16.00;61.94;99121.92;232089;201;139244;-55
2024/02/28 11:50:58;;;;;;;76.60;29.00;;;;;;;16.05;62.22;99120.10;232278;201;137766;-56
2024/02/28 11:56:03;;;;;;;67.70;28.30;;;;;;;16.03;62.24;99127.98;232221;198;153288;-56
2024/02/28 12:01:06;;;;;;;73.70;28.90;;;;;;;16.01;62.41;99125.08;232277;204;155015;-56
2024/02/28 12:06:11;;;;;;;71.90;27.70;;;;;;;16.04;62.37;99119.84;231709;204;138838;-55
2024/02/28 12:11:14;;;;;;;64.00;27.20;;;;;;;16.06;62.45;99123.38;232289;201;153222;-56
2024/02/28 12:16:17;;;;;;;67.00;27.70;;;;;;;16.07;62.51;99124.73;232164;204;137995;-57
2024/02/28 12:21:20;;;;;;;66.30;26.80;;;;;;;16.08;62.44;99123.71;232225;201;138124;-56
2024/02/28 12:26:24;;;;;;;59.00;27.10;;;;;;;16.09;62.06;99124.42;232030;198;154138;-57
2024/02/28 12:31:28;;;;;;;55.00;26.80;;;;;;;16.08;62.28;99119.27;232180;198;138087;-55
2024/02/28 12:36:32;;;;;;;57.40;26.40;;;;;;;16.08;62.30;99121.06;232156;196;139302;-56
2024/02/28 12:41:36;;;;;;;56.70;27.90;;;;;;;16.12;61.91;99124.88;232100;204;153451;-58
2024/02/28 12:46:40;;;;;;;54.40;26.30;;;;;;;16.15;61.89;99126.63;232217;201;138232;-56
2024/02/28 12:51:46;;;;;;;52.90;25.80;;;;;;;16.17;62.04;99123.55;232240;201;138097;-56
2024/02/28 12:56:50;;;;;;;47.90;24.60;;;;;;;16.19;61.90;99131.10;232339;204;153494;-56
2024/02/28 13:01:53;;;;;;;61.80;26.50;;;;;;;16.22;61.82;99132.45;232227;204;138778;-56
2024/02/28 13:06:56;;;;;;;56.90;25.10;;;;;;;16.24;61.47;99130.67;232080;204;138270;-56
2024/02/28 13:12:00;;;;;;;50.10;24.40;;;;;;;16.26;61.60;99131.16;232285;198;153638;-57
2024/02/28 13:17:05;;;;;;;60.90;26.00;;;;;;;16.28;61.49;99136.21;232173;204;137843;-57
2024/02/28 13:22:08;;;;;;;54.20;24.60;;;;;;;16.29;61.30;99138.61;231398;204;140333;-57
2024/02/28 13:27:12;;;;;;;54.90;25.10;;;;;;;16.30;60.63;99134.92;231989;198;154847;-57
2024/02/28 13:32:15;;;;;;;51.30;24.90;;;;;;;16.33;60.64;99137.21;232115;205;138276;-59
2024/02/28 13:37:18;;;;;;;45.80;21.40;;;;;;;16.33;60.00;99143.00;232255;201;138226;-56
2024/02/28 13:42:24;;;;;;;43.00;21.90;;;;;;;16.32;59.15;99140.77;232051;201;153565;-55
2024/02/28 13:47:27;;;;;;;;;;;;;;;16.33;58.94;99147.06;232367;198;137766;-56
2024/02/28 13:52:30;;;;;;;43.20;20.60;;;;;;;16.34;58.52;99147.73;231952;198;137514;-56
2024/02/28 13:57:34;;;;;;;47.50;21.70;;;;;;;16.36;58.86;99149.34;231866;204;153235;-57
2024/02/28 14:02:37;;;;;;;57.80;23.20;;;;;;;16.35;59.52;99150.85;231985;201;138292;-57
2024/02/28 14:07:40;;;;;;;60.70;23.60;;;;;;;16.37;60.09;99150.95;232123;204;137688;-59
2024/02/28 14:12:44;;;;;;;51.60;22.90;;;;;;;16.36;60.25;99151.02;232094;204;153494;-57
2024/02/28 14:17:48;;;;;;;58.50;23.40;;;;;;;16.34;60.14;99152.01;232341;204;138048;-57
2024/02/28 14:22:52;;;;;;;54.50;23.30;;;;;;;16.32;60.35;99150.16;232215;198;137612;-57
2024/02/28 14:27:55;;;;;;;55.00;23.90;;;;;;;16.33;60.42;99154.08;232130;200;153817;-56
2024/02/28 14:32:59;;;;;;;58.90;23.50;;;;;;;16.34;60.18;99157.77;232057;198;138204;-57
2024/02/28 14:38:03;;;;;;;56.10;23.00;;;;;;;16.33;60.03;99164.45;232121;204;139306;-57
2024/02/28 14:43:08;;;;;;;49.60;20.50;;;;;;;16.33;59.54;99166.98;232251;201;153330;-59
2024/02/28 14:48:11;;;;;;;45.20;21.00;;;;;;;16.30;59.53;99168.11;232144;198;137876;-57
2024/02/28 14:53:16;;;;;;;34.70;15.40;;;;;;;16.27;59.29;99172.08;232251;204;138329;-58
2024/02/28 14:58:19;;;;;;;30.20;13.60;;;;;;;16.24;58.17;99180.61;231998;201;155014;-57
2024/02/28 15:03:23;;;;;;;31.40;12.90;;;;;;;16.21;57.75;99186.21;232098;204;138155;-57
2024/02/28 15:08:26;;;;;;;30.20;13.30;;;;;;;16.14;57.49;99190.20;232023;204;138533;-57
2024/02/28 15:13:29;;;;;;;21.40;11.70;;;;;;;16.12;57.25;99193.46;231380;205;153448;-57
2024/02/28 15:18:33;;;;;;;29.30;12.20;;;;;;;16.09;57.08;99197.61;232274;204;138129;-59
2024/02/28 15:23:37;;;;;;;21.80;12.10;;;;;;;16.07;57.21;99196.53;232261;201;138325;-58
2024/02/28 15:28:40;;;;;;;30.60;13.00;;;;;;;16.02;57.29;99204.06;232154;204;153244;-57
2024/02/28 15:33:43;;;;;;;27.60;13.60;;;;;;;15.99;57.35;99212.03;232211;204;138496;-58
2024/02/28 15:38:46;;;;;;;26.60;13.10;;;;;;;15.97;57.59;99211.10;232054;197;139155;-57
2024/02/28 15:43:50;;;;;;;28.60;13.80;;;;;;;15.96;57.86;99216.02;232098;200;153360;-57
2024/02/28 15:48:53;;;;;;;27.80;15.30;;;;;;;15.93;57.92;99217.73;232035;201;139533;-56
2024/02/28 15:53:57;;;;;;;34.80;15.70;;;;;;;15.92;58.15;99214.79;232239;198;137510;-57
2024/02/28 15:59:01;;;;;;;45.40;21.00;;;;;;;15.88;58.38;99216.22;231871;201;153722;-57
2024/02/28 16:04:04;;;;;;;43.50;23.10;;;;;;;15.83;58.89;99224.81;232088;204;138664;-57
2024/02/28 16:09:09;;;;;;;239.20;165.60;;;;;;;15.78;59.34;99236.25;231898;205;138266;-57
2024/02/28 16:14:13;;;;;;;45.10;26.20;;;;;;;15.79;59.93;99242.47;231969;201;153985;-57
2024/02/28 16:19:16;;;;;;;46.20;27.90;;;;;;;15.72;60.14;99250.54;232191;201;140039;-57
2024/02/28 16:24:29;;;;;;;46.50;28.10;;;;;;;15.64;60.44;99252.05;232051;200;137827;-57
2024/02/28 16:29:32;;;;;;;51.70;29.10;;;;;;;15.57;60.89;99260.08;232244;204;154466;-57
2024/02/28 16:34:35;;;;;;;51.70;31.10;;;;;;;15.48;61.43;99265.30;232183;201;138209;-56
2024/02/28 16:39:39;;;;;;;53.70;34.20;;;;;;;15.38;61.98;99264.99;232070;204;139414;-56
2024/02/28 16:44:42;;;;;;;55.50;34.70;;;;;;;15.31;62.52;99263.80;232099;198;153169;-56
2024/02/28 16:49:46;;;;;;;56.90;34.30;;;;;;;15.25;62.85;99270.99;231950;201;139498;-55
2024/02/28 16:54:49;;;;;;;58.60;33.50;;;;;;;15.18;63.16;99275.52;232058;196;140194;-55
2024/02/28 16:59:52;;;;;;;57.40;33.20;;;;;;;15.10;63.43;99279.13;231919;202;153181;-54
2024/02/28 17:04:56;;;;;;;63.90;36.30;;;;;;;15.08;63.53;99284.88;231756;204;137778;-51
2024/02/28 17:09:59;;;;;;;59.60;35.30;;;;;;;15.06;63.65;99287.84;232163;204;138141;-52
2024/02/28 17:15:03;;;;;;;59.30;36.20;;;;;;;15.08;63.70;99291.84;232000;204;153226;-54
2024/02/28 17:20:07;;;;;;;60.70;38.40;;;;;;;15.09;63.33;99298.70;231051;204;139084;-53
2024/02/28 17:25:10;;;;;;;74.60;42.50;;;;;;;15.07;63.17;99302.58;232064;204;138215;-55
2024/02/28 17:30:14;;;;;;;73.00;45.40;;;;;;;15.10;63.29;99309.87;231952;204;153325;-52
2024/02/28 17:35:17;;;;;;;77.60;45.00;;;;;;;15.06;63.36;99313.21;232206;201;138285;-54
2024/02/28 17:40:20;;;;;;;74.70;45.30;;;;;;;14.91;63.17;99320.58;232000;204;138391;-55
2024/02/28 17:45:23;;;;;;;84.30;47.00;;;;;;;14.79;62.95;99319.74;232075;204;236303;-52
2024/02/28 17:50:27;;;;;;;82.70;47.60;;;;;;;14.72;63.22;99322.78;232052;201;139172;-55
2024/02/28 17:55:31;;;;;;;90.60;48.80;;;;;;;14.57;63.52;99326.40;232138;201;140219;-54
2024/02/28 18:00:34;;;;;;;81.90;48.90;;;;;;;14.41;63.69;99332.88;232106;204;154563;-53
2024/02/28 18:05:37;;;;;;;90.20;50.60;;;;;;;14.28;63.66;99336.13;232142;204;141703;-54
2024/02/28 18:10:42;;;;;;;87.50;53.20;;;;;;;14.14;63.96;99343.37;232022;204;140985;-55
2024/02/28 18:15:45;;;;;;;98.30;57.10;;;;;;;14.05;64.34;99350.33;231870;196;154147;-54
2024/02/28 18:20:49;;;;;;;96.80;56.20;;;;;;;13.86;64.81;99348.23;232047;201;138006;-54
2024/02/28 18:25:52;;;;;;;90.00;54.10;;;;;;;13.77;65.23;99337.80;231895;201;138697;-54
2024/02/28 18:30:55;;;;;;;98.60;55.70;;;;;;;13.69;65.68;99340.90;232113;204;155102;-55
2024/02/28 18:35:59;;;;;;;100.70;58.10;;;;;;;13.72;65.86;99337.10;232193;204;138403;-55
2024/02/28 18:41:04;;;;;;;103.70;63.60;;;;;;;13.79;66.22;99341.65;232064;204;140478;-52
2024/02/28 18:46:09;;;;;;;101.80;60.90;;;;;;;13.90;65.91;99344.23;232098;196;153558;-52
2024/02/28 18:51:14;;;;;;;105.80;61.50;;;;;;;13.90;65.87;99349.02;231876;201;138043;-54
2024/02/28 18:56:17;;;;;;;107.10;62.10;;;;;;;13.88;65.86;99350.59;231899;204;138966;-53
2024/02/28 19:01:21;;;;;;;104.80;60.60;;;;;;;13.82;66.04;99352.48;231929;198;155067;-52
2024/02/28 19:06:25;;;;;;;110.20;60.80;;;;;;;13.77;66.24;99362.28;231896;198;139528;-55
2024/02/28 19:11:28;;;;;;;105.10;61.40;;;;;;;13.72;66.41;99371.14;232007;204;138343;-53
2024/02/28 19:16:32;;;;;;;107.20;58.70;;;;;;;13.67;66.57;99384.16;232045;201;154653;-53
2024/02/28 19:21:38;;;;;;;99.00;59.30;;;;;;;13.61;66.67;99385.48;232059;204;138373;-53
2024/02/28 19:26:42;;;;;;;94.30;55.40;;;;;;;13.52;66.88;99383.42;231949;197;137671;-55
2024/02/28 19:31:46;;;;;;;96.70;55.70;;;;;;;13.42;67.04;99392.11;232097;201;155303;-56
2024/02/28 19:36:49;;;;;;;97.00;57.20;;;;;;;13.48;67.27;99386.73;232163;204;139079;-55
2024/02/28 19:41:52;;;;;;;99.80;56.10;;;;;;;13.53;66.93;99390.15;232179;204;138616;-54
2024/02/28 19:46:56;;;;;;;105.20;59.10;;;;;;;13.46;66.91;99393.59;232084;198;153340;-54
2024/02/28 19:51:59;;;;;;;91.90;56.40;;;;;;;13.43;67.00;99398.48;232065;204;138394;-54
2024/02/28 19:57:03;;;;;;;96.50;57.10;;;;;;;13.40;67.04;99397.92;232014;201;138232;-54
2024/02/28 20:02:08;;;;;;;96.10;56.60;;;;;;;13.38;67.10;99403.64;231795;198;154193;-53
2024/02/28 20:07:12;;;;;;;93.00;54.90;;;;;;;13.32;67.25;99402.64;232079;204;138223;-55
2024/02/28 20:12:15;;;;;;;91.00;54.20;;;;;;;13.25;67.42;99402.52;232102;204;138876;-53
2024/02/28 20:17:19;;;;;;;381.90;275.10;;;;;;;13.29;68.87;99402.82;232163;198;153912;-56
2024/02/28 20:22:22;;;;;;;96.40;54.50;;;;;;;13.43;68.30;99410.20;231958;198;137985;-54
2024/02/28 20:27:25;;;;;;;93.30;51.70;;;;;;;13.41;67.48;99415.73;232135;201;139196;-55
2024/02/28 20:32:32;;;;;;;98.10;54.40;;;;;;;13.37;67.30;99423.48;232153;201;154187;-56
2024/02/28 20:37:37;;;;;;;89.60;55.10;;;;;;;13.32;67.42;99428.13;232114;200;137756;-56
2024/02/28 20:42:41;;;;;;;94.60;55.50;;;;;;;13.31;67.49;99431.36;232201;204;138461;-52
2024/02/28 20:47:45;;;;;;;93.60;55.70;;;;;;;13.27;67.42;99431.32;232260;196;153098;-55
2024/02/28 20:52:49;;;;;;;183.40;118.50;;;;;;;13.26;67.81;99436.88;231800;204;140996;-56
2024/02/28 20:57:52;;;;;;;111.00;63.30;;;;;;;13.31;68.40;99440.11;231995;202;138729;-56
2024/02/28 21:02:55;;;;;;;100.00;53.70;;;;;;;13.32;67.68;99441.66;231932;201;154449;-56
2024/02/28 21:07:59;;;;;;;96.60;53.20;;;;;;;13.22;67.64;99447.80;232080;201;138707;-55
2024/02/28 21:13:03;;;;;;;103.40;54.70;;;;;;;13.11;67.81;99450.89;232240;204;143150;-56
2024/02/28 21:18:06;;;;;;;100.40;52.60;;;;;;;13.01;68.22;99451.28;232264;197;153318;-57
2024/02/28 21:23:09;;;;;;;96.50;51.10;;;;;;;12.95;68.45;99453.30;232224;202;139079;-57
2024/02/28 21:28:12;;;;;;;100.40;53.70;;;;;;;12.89;68.67;99453.51;232150;197;139098;-57
2024/02/28 21:33:16;;;;;;;102.40;54.30;;;;;;;12.85;68.90;99458.05;232112;201;153872;-56
2024/02/28 21:38:19;;;;;;;104.20;55.00;;;;;;;12.97;69.03;99455.64;232113;196;139657;-54
2024/02/28 21:43:22;;;;;;;105.20;53.40;;;;;;;13.01;69.06;99452.73;232096;198;138904;-56
2024/02/28 21:48:26;;;;;;;105.40;49.10;;;;;;;12.99;69.27;99460.71;232179;204;154382;-56
2024/02/28 21:53:29;;;;;;;94.00;45.10;;;;;;;12.94;69.49;99465.48;232266;204;138596;-55
2024/02/28 21:58:32;;;;;;;89.50;43.70;;;;;;;12.90;69.41;99469.89;232101;196;138508;-56
2024/02/28 22:03:36;;;;;;;82.70;40.10;;;;;;;12.81;69.40;99470.59;232027;204;153135;-55
2024/02/28 22:08:39;;;;;;;79.50;38.90;;;;;;;12.72;69.47;99469.56;232167;204;138362;-56
2024/02/28 22:13:42;;;;;;;80.10;36.80;;;;;;;12.68;69.52;99471.58;232083;197;138227;-55
2024/02/28 22:18:46;;;;;;;75.20;38.80;;;;;;;12.70;69.46;99474.16;231936;200;153295;-55
2024/02/28 22:23:49;;;;;;;68.30;36.40;;;;;;;12.71;69.44;99475.00;232285;198;138545;-56
2024/02/28 22:28:53;;;;;;;76.90;37.30;;;;;;;12.70;69.35;99481.30;231969;204;137999;-55
2024/02/28 22:33:56;;;;;;;73.40;35.70;;;;;;;12.67;69.23;99480.95;231959;198;154161;-54
2024/02/28 22:39:00;;;;;;;69.60;34.90;;;;;;;12.61;69.33;99480.11;231994;204;138497;-55
2024/02/28 22:44:03;;;;;;;72.90;35.50;;;;;;;12.56;69.38;99487.69;231934;198;138004;-55
2024/02/28 22:49:06;;;;;;;70.20;34.20;;;;;;;12.54;69.29;99490.67;231483;204;155972;-55
2024/02/28 22:54:14;;;;;;;57.70;32.00;;;;;;;12.48;69.25;99487.63;232057;198;141880;-56
2024/02/28 22:59:18;;;;;;;55.20;30.90;;;;;;;12.43;69.08;99495.63;232176;198;137473;-55